Zumbro Falls, Minnesota
Current Conditions -  °F | °C
As of 9:54 PM on Friday 28 Nov 2014 (Local Time) from K9MN Reporting Station
Clear Clear  
Wind Chill: 11°   Ceiling: Unl
Heat Index: 23°   Visibility: 10mi
Dew Point: 18°   Wind: 12mph
Humidity: 83%   Direction: 120°ESE
Pressure: 29.73"   Gusts: NA
Location:  44.28°N, 92.42°W
Report Text: K9MN 290354Z AUTO 12010KT 10SM CLR M05/M08 A2973 RMK AO1 T10511076
Loading
Personal Weather Stations






























Interactive Weather Map New forecast layout! Learn more

10-Day Weather Forecast

Advertisements
Track Severe Weather on mobile